This is the latest recevied weather packets stored in our database for station/object EA4IAJ-12. If no packets are shown the sender has not sent any weather packets the latest 10 day(s).
| Time | Temp. | Humidity | Pressure | Rain* | Wind** | Luminosity | Snow |
|---|---|---|---|---|---|---|---|
| 1777203004 | 33.33° C | 97% | 1076.1 hPa | - | - | - | - |
| 1777202104 | 31.67° C | 100% | 1071.7 hPa | - | - | - | - |
| 1777201203 | 32.22° C | 100% | 1075.3 hPa | - | - | - | - |
| 1777200302 | 31.67° C | 100% | 1074.3 hPa | - | - | - | - |
| 1777199402 | 30.56° C | 100% | 1069.1 hPa | - | - | - | - |
| 1777198501 | 33.33° C | 100% | 1083.3 hPa | - | - | - | - |
| 1777197601 | 31.11° C | 100% | 1074.3 hPa | - | - | - | - |
| 1777196712 | 28.33° C | 100% | 1061.9 hPa | - | - | - | - |
| 1777195812 | 27.78° C | 100% | 1060.6 hPa | - | - | - | - |
| 1777194911 | 26.67° C | 100% | 1056 hPa | - | - | - | - |
| 1777194011 | 25° C | 100% | 1048.7 hPa | - | - | - | - |
| 1777193110 | 23.89° C | 100% | 1044.8 hPa | - | - | - | - |
| 1777192209 | 23.33° C | 100% | 1042.6 hPa | - | - | - | - |
| 1777191308 | 22.78° C | 100% | 1040.4 hPa | - | - | - | - |
| 1777190408 | 21.67° C | 100% | 1036 hPa | - | - | - | - |
| 1777189507 | 20° C | 100% | 1029.6 hPa | - | - | - | - |
| 1777188607 | 20° C | 100% | 1029.2 hPa | - | - | - | - |
| 1777187706 | 18.89° C | 100% | 1025.4 hPa | - | - | - | - |
| 1777186806 | 18.33° C | 100% | 1021.3 hPa | - | - | - | - |
| 1777185906 | 16.11° C | 100% | 1013.2 hPa | - | - | - | - |
| 1777185005 | 15° C | 100% | 1007.1 hPa | - | - | - | - |
| 1777184104 | 13.33° C | 100% | 1001 hPa | - | - | - | - |
| 1777183204 | 12.22° C | 100% | 996.6 hPa | - | - | - | - |
| 1777182304 | 12.22° C | 100% | 995.7 hPa | - | - | - | - |
| 1777181403 | 12.22° C | 100% | 995.4 hPa | - | - | - | - |
* Rain since midnight (hover to see other rain measurements)
** Current wind speed in m/s (hover to see current wind gust speed)